createdAt,value
2023-05-21T00:02:23.600Z,100986.80
2023-05-21T00:04:51.385Z,100986.17
2023-05-21T00:07:18.999Z,100985.50
2023-05-21T00:09:46.608Z,100985.21
2023-05-21T00:12:14.236Z,100985.19
2023-05-21T00:14:41.859Z,100986.73
2023-05-21T00:17:09.533Z,100987.55
2023-05-21T00:19:37.165Z,100984.82
2023-05-21T00:22:05.083Z,100984.77
2023-05-21T00:24:32.794Z,100986.30
2023-05-21T00:27:00.822Z,100984.71
2023-05-21T00:29:30.078Z,100987.41
2023-05-21T00:31:57.935Z,100986.81
2023-05-21T00:34:26.404Z,100988.40
2023-05-21T00:36:55.696Z,100986.32
2023-05-21T00:39:24.112Z,100986.04
2023-05-21T00:41:51.709Z,100991.73
2023-05-21T00:44:20.426Z,100993.71
2023-05-21T00:46:48.825Z,100994.06
2023-05-21T00:49:16.886Z,100990.98
2023-05-21T00:51:45.194Z,100996.41
2023-05-21T00:54:12.926Z,100991.89
2023-05-21T00:56:41.403Z,100992.58
2023-05-21T00:59:09.130Z,100989.96
2023-05-21T01:01:37.289Z,100987.62
2023-05-21T01:04:05.203Z,100986.38
2023-05-21T01:06:35.745Z,100983.61
2023-05-21T01:09:06.982Z,100981.02
2023-05-21T01:11:43.196Z,100982.67
2023-05-21T01:14:13.194Z,100982.50
2023-05-21T01:16:46.332Z,100979.33
2023-05-21T01:19:21.279Z,100979.71
2023-05-21T01:21:52.806Z,100977.89
2023-05-21T01:24:20.871Z,100981.23
2023-05-21T01:26:49.429Z,100982.45
2023-05-21T01:29:17.060Z,100982.33
2023-05-21T01:32:01.250Z,100981.60
2023-05-21T01:34:35.910Z,100985.02
2023-05-21T01:37:22.857Z,100981.84
2023-05-21T01:40:08.342Z,100985.98
2023-05-21T01:42:38.792Z,100984.16
2023-05-21T01:45:08.420Z,100982.94
2023-05-21T01:47:37.349Z,100981.33
2023-05-21T01:50:05.904Z,100981.16
2023-05-21T01:52:33.553Z,100986.15
2023-05-21T01:55:01.314Z,100991.98
2023-05-21T01:57:29.247Z,100990.51
2023-05-21T01:59:57.856Z,100995.00
2023-05-21T02:02:25.687Z,100989.50
2023-05-21T02:04:53.432Z,100986.45
2023-05-21T02:07:21.126Z,100987.30
2023-05-21T02:09:48.777Z,100983.50
2023-05-21T02:12:16.465Z,100986.98
2023-05-21T02:14:44.200Z,100986.35
2023-05-21T02:17:11.825Z,100987.54
2023-05-21T02:19:39.500Z,100988.50
2023-05-21T02:22:07.182Z,100988.98
2023-05-21T02:24:34.816Z,100988.44
2023-05-21T02:27:02.867Z,100988.69
2023-05-21T02:29:30.468Z,100990.73
2023-05-21T02:31:58.453Z,100990.94
2023-05-21T02:34:26.169Z,100988.08
2023-05-21T02:36:54.563Z,100989.89
2023-05-21T02:39:22.662Z,100990.23
2023-05-21T02:41:50.516Z,100995.55
2023-05-21T02:44:19.226Z,100996.40
2023-05-21T02:46:46.906Z,100995.16
2023-05-21T02:49:16.459Z,100990.61
2023-05-21T02:51:45.504Z,100987.39
2023-05-21T02:54:13.236Z,100987.46
2023-05-21T02:56:41.302Z,100985.44
2023-05-21T02:59:08.902Z,100984.89
2023-05-21T03:01:36.997Z,100987.31
2023-05-21T03:04:05.120Z,100985.09
2023-05-21T03:06:34.569Z,100980.88
2023-05-21T03:09:05.696Z,100979.95
2023-05-21T03:11:33.374Z,100980.73
2023-05-21T03:14:01.452Z,100982.09
2023-05-21T03:16:29.127Z,100978.75
2023-05-21T03:18:56.876Z,100984.28
2023-05-21T03:21:24.645Z,100982.00
2023-05-21T03:23:52.952Z,100979.29
2023-05-21T03:26:21.924Z,100984.09
2023-05-21T03:28:49.554Z,100983.13
2023-05-21T03:31:17.490Z,100986.32
2023-05-21T03:33:51.200Z,100984.80
2023-05-21T03:36:31.063Z,100982.79
2023-05-21T03:38:59.041Z,100979.40
2023-05-21T03:41:27.033Z,100981.21
2023-05-21T03:43:59.314Z,100985.73
2023-05-21T03:46:30.439Z,100985.03
2023-05-21T03:49:06.158Z,100985.60
2023-05-21T03:51:34.796Z,100986.92
2023-05-21T03:54:02.773Z,100985.12
2023-05-21T03:56:30.735Z,100983.55
2023-05-21T03:58:58.543Z,100985.02
2023-05-21T04:01:28.152Z,100987.59
2023-05-21T04:03:56.013Z,100988.23
2023-05-21T04:06:24.412Z,100988.48
2023-05-21T04:08:52.244Z,100989.91
2023-05-21T04:11:19.897Z,100990.70
2023-05-21T04:13:49.079Z,100986.50
2023-05-21T04:16:18.870Z,100991.05
2023-05-21T04:18:47.339Z,100988.84
2023-05-21T04:21:16.204Z,100994.82
2023-05-21T04:23:45.311Z,100992.06
2023-05-21T04:26:25.222Z,100994.61
2023-05-21T04:28:54.073Z,100992.02
2023-05-21T04:31:22.937Z,100992.35
2023-05-21T04:33:51.930Z,100993.06
2023-05-21T04:36:20.032Z,100987.58
2023-05-21T04:38:48.620Z,100990.68
2023-05-21T04:41:18.732Z,100989.19
2023-05-21T04:43:47.055Z,100985.27
2023-05-21T04:46:15.218Z,100988.15
2023-05-21T04:48:44.969Z,100992.86
2023-05-21T04:51:15.046Z,100989.69
2023-05-21T04:53:42.839Z,100985.76
2023-05-21T04:56:10.816Z,100984.77
2023-05-21T04:58:40.432Z,100985.59
2023-05-21T05:01:08.831Z,100987.34
2023-05-21T05:03:36.524Z,100986.64
2023-05-21T05:06:05.667Z,100989.47
2023-05-21T05:08:34.441Z,100982.70
2023-05-21T05:11:02.926Z,100980.69
2023-05-21T05:13:30.880Z,100975.44
2023-05-21T05:16:00.329Z,100980.66
2023-05-21T05:18:28.178Z,100978.20
2023-05-21T05:20:55.982Z,100976.48
2023-05-21T05:23:23.951Z,100975.40
2023-05-21T05:25:52.202Z,100976.33
2023-05-21T05:28:19.914Z,100975.50
2023-05-21T05:30:47.936Z,100972.65
2023-05-21T05:33:21.100Z,100968.71
2023-05-21T05:35:48.801Z,100973.08
2023-05-21T05:38:16.970Z,100973.70
2023-05-21T05:40:44.717Z,100968.67
2023-05-21T05:43:12.478Z,100967.65
2023-05-21T05:45:40.283Z,100970.35
2023-05-21T05:48:13.947Z,100971.61
2023-05-21T05:50:43.231Z,100967.61
2023-05-21T05:53:13.180Z,100969.11
2023-05-21T05:55:41.012Z,100971.43
2023-05-21T05:58:08.899Z,100960.96
2023-05-21T06:00:48.177Z,100955.41
2023-05-21T06:03:16.036Z,100955.50
2023-05-21T06:05:44.472Z,100950.01
2023-05-21T06:08:12.232Z,100945.09
2023-05-21T06:10:39.839Z,100947.45
2023-05-21T06:13:07.496Z,100949.48
2023-05-21T06:15:36.008Z,100954.85
2023-05-21T06:18:04.011Z,100952.42
2023-05-21T06:20:31.829Z,100954.33
2023-05-21T06:22:59.907Z,100949.46
2023-05-21T06:25:27.807Z,100950.75
2023-05-21T06:27:56.760Z,100948.92
2023-05-21T06:30:26.155Z,100941.23
2023-05-21T06:32:54.276Z,100944.64
2023-05-21T06:35:22.286Z,100939.15
2023-05-21T06:37:49.907Z,100935.27
2023-05-21T06:40:18.039Z,100938.02
2023-05-21T06:42:46.436Z,100937.84
2023-05-21T06:45:29.090Z,100942.75
2023-05-21T06:48:01.169Z,100936.58
2023-05-21T06:50:28.896Z,100933.58
2023-05-21T06:52:56.871Z,100930.34
2023-05-21T06:55:24.681Z,100928.45
2023-05-21T06:58:03.157Z,100926.73
2023-05-21T07:00:31.718Z,100925.34
2023-05-21T07:02:59.496Z,100923.80
2023-05-21T07:05:27.289Z,100924.61
2023-05-21T07:07:55.459Z,100924.34
2023-05-21T07:10:23.048Z,100924.14
2023-05-21T07:12:51.138Z,100921.70
2023-05-21T07:15:19.574Z,100920.48
2023-05-21T07:17:47.178Z,100923.34
2023-05-21T07:20:15.760Z,100925.66
2023-05-21T07:22:44.056Z,100923.00
2023-05-21T07:25:13.347Z,100918.74
2023-05-21T07:27:41.733Z,100916.13
2023-05-21T07:30:10.407Z,100919.44
2023-05-21T07:32:39.189Z,100914.91
2023-05-21T07:35:07.271Z,100913.88
2023-05-21T07:37:35.547Z,100906.36
2023-05-21T07:40:07.587Z,100903.21
2023-05-21T07:42:35.573Z,100897.86
2023-05-21T07:45:03.959Z,100896.25
2023-05-21T07:47:35.507Z,100889.05
2023-05-21T07:50:03.728Z,100889.95
2023-05-21T07:52:31.424Z,100888.46
2023-05-21T07:55:01.116Z,100886.23
2023-05-21T07:57:29.891Z,100882.62
2023-05-21T08:00:05.088Z,100878.84
2023-05-21T08:02:42.954Z,100875.23
2023-05-21T08:05:13.002Z,100874.05
2023-05-21T08:07:40.765Z,100862.86
2023-05-21T08:10:09.234Z,100865.49
2023-05-21T08:12:36.965Z,100859.38
2023-05-21T08:15:06.004Z,100858.41
2023-05-21T08:17:35.520Z,100853.61
2023-05-21T08:20:04.219Z,100848.21
2023-05-21T08:22:32.163Z,100846.26
2023-05-21T08:24:59.763Z,100846.42
2023-05-21T08:27:27.355Z,100840.02
2023-05-21T08:29:55.004Z,100835.17
2023-05-21T08:32:22.745Z,100832.05
2023-05-21T08:34:50.597Z,100832.05
2023-05-21T08:37:36.638Z,100825.86
2023-05-21T08:40:24.579Z,100822.97
2023-05-21T08:42:52.735Z,100821.42
2023-05-21T08:45:27.534Z,100815.19
2023-05-21T08:47:59.624Z,100815.73
2023-05-21T08:50:29.448Z,100810.01
2023-05-21T08:53:00.873Z,100802.15
2023-05-21T08:55:31.101Z,100800.42
2023-05-21T08:57:58.774Z,100796.29
2023-05-21T09:00:26.915Z,100794.20
2023-05-21T09:02:56.127Z,100793.88
2023-05-21T09:05:25.098Z,100793.21
2023-05-21T09:08:03.407Z,100790.37
2023-05-21T09:10:39.693Z,100785.88
2023-05-21T09:13:10.259Z,100783.25
2023-05-21T09:15:38.149Z,100779.06
2023-05-21T09:18:07.277Z,100773.96
2023-05-21T09:20:51.123Z,100770.05
2023-05-21T09:23:19.709Z,100771.73
2023-05-21T09:25:48.790Z,100771.08
2023-05-21T09:28:23.139Z,100766.64
2023-05-21T09:30:54.156Z,100760.11
2023-05-21T09:33:26.635Z,100761.17
2023-05-21T09:35:54.573Z,100756.56
2023-05-21T09:38:26.950Z,100758.40
2023-05-21T09:40:57.784Z,100753.97
2023-05-21T09:43:26.125Z,100751.36
2023-05-21T09:45:56.905Z,100743.55
2023-05-21T09:48:36.320Z,100739.61
2023-05-21T09:51:18.714Z,100744.14
2023-05-21T09:54:03.060Z,100740.67
2023-05-21T09:56:32.073Z,100736.94
2023-05-21T09:59:04.009Z,100739.02
2023-05-21T10:01:35.905Z,100737.70
2023-05-21T10:04:08.600Z,100730.83
2023-05-21T10:06:43.228Z,100722.98
2023-05-21T10:09:11.563Z,100718.48
2023-05-21T10:11:41.560Z,100717.58
2023-05-21T10:14:16.239Z,100714.71
2023-05-21T10:16:44.791Z,100712.48
2023-05-21T10:19:15.490Z,100709.97
2023-05-21T10:21:44.792Z,100706.23
2023-05-21T10:24:13.518Z,100710.60
2023-05-21T10:26:41.514Z,100704.83
2023-05-21T10:29:09.895Z,100705.09
2023-05-21T10:31:39.096Z,100698.40
2023-05-21T10:34:07.320Z,100694.06
2023-05-21T10:36:36.756Z,100685.75
2023-05-21T10:39:07.386Z,100678.83
2023-05-21T10:41:46.874Z,100674.23
2023-05-21T10:44:35.963Z,100676.42
2023-05-21T10:47:28.882Z,100669.55
2023-05-21T10:50:16.051Z,100666.21
2023-05-21T10:53:03.476Z,100667.56
2023-05-21T10:55:51.251Z,100664.66
2023-05-21T10:58:32.492Z,100655.97
2023-05-21T11:01:02.259Z,100652.16
2023-05-21T11:03:34.217Z,100648.50
2023-05-21T11:06:06.175Z,100645.75
2023-05-21T11:08:38.663Z,100642.98
2023-05-21T11:11:06.364Z,100630.64
2023-05-21T11:13:50.128Z,100624.06
2023-05-21T11:16:18.165Z,100626.27
2023-05-21T11:18:45.975Z,100624.07
2023-05-21T11:21:16.037Z,100627.09
2023-05-21T11:24:01.594Z,100624.84
2023-05-21T11:26:52.055Z,100621.42
2023-05-21T11:29:19.928Z,100614.36
2023-05-21T11:31:58.797Z,100606.76
2023-05-21T11:34:29.841Z,100606.88
2023-05-21T11:37:25.027Z,100606.77
2023-05-21T11:39:52.754Z,100602.33
2023-05-21T11:42:39.567Z,100600.77
2023-05-21T11:45:08.067Z,100595.22
2023-05-21T11:47:35.909Z,100592.52
2023-05-21T11:50:04.264Z,100592.10
2023-05-21T11:52:33.150Z,100592.86
2023-05-21T11:55:01.025Z,100592.48
2023-05-21T11:57:32.320Z,100582.84
2023-05-21T12:00:02.532Z,100582.48
2023-05-21T12:02:51.093Z,100582.33
2023-05-21T12:05:19.280Z,100580.30
2023-05-21T12:07:51.092Z,100577.06
2023-05-21T12:10:22.955Z,100571.44
2023-05-21T12:12:56.189Z,100568.59
2023-05-21T12:15:26.441Z,100564.30
2023-05-21T12:17:54.676Z,100566.34
2023-05-21T12:20:23.073Z,100561.63
2023-05-21T12:22:51.185Z,100555.77
2023-05-21T12:25:22.188Z,100552.84
2023-05-21T12:27:57.497Z,100547.02
2023-05-21T12:30:26.168Z,100538.71
2023-05-21T12:32:53.973Z,100539.61
2023-05-21T12:35:23.420Z,100533.44
2023-05-21T12:37:52.288Z,100525.09
2023-05-21T12:40:20.837Z,100515.63
2023-05-21T12:42:49.528Z,100509.23
2023-05-21T12:45:18.367Z,100508.48
2023-05-21T12:47:50.267Z,100497.35
2023-05-21T12:50:20.523Z,100497.04
2023-05-21T12:52:48.201Z,100491.44
2023-05-21T12:55:17.083Z,100479.65
2023-05-21T12:57:45.576Z,100471.33
2023-05-21T13:00:14.143Z,100466.88
2023-05-21T13:02:43.973Z,100459.08
2023-05-21T13:05:17.667Z,100451.77
2023-05-21T13:07:51.492Z,100447.61
2023-05-21T13:10:19.199Z,100436.49
2023-05-21T13:12:47.464Z,100435.86
2023-05-21T13:15:15.467Z,100433.84
2023-05-21T13:17:43.155Z,100420.56
2023-05-21T13:20:12.208Z,100415.15
2023-05-21T13:22:46.690Z,100420.17
2023-05-21T13:25:25.262Z,100408.55
2023-05-21T13:27:53.140Z,100403.58
2023-05-21T13:30:22.131Z,100403.04
2023-05-21T13:32:49.938Z,100394.64
2023-05-21T13:35:17.845Z,100397.17
2023-05-21T13:37:46.217Z,100390.16
2023-05-21T13:40:15.907Z,100386.63
2023-05-21T13:42:45.776Z,100381.69
2023-05-21T13:45:16.243Z,100383.27
2023-05-21T13:47:45.850Z,100393.08
2023-05-21T13:50:14.099Z,100400.70
2023-05-21T13:52:42.215Z,100407.81
2023-05-21T13:55:10.581Z,100410.16
2023-05-21T13:57:40.391Z,100413.67
2023-05-21T14:00:14.079Z,100411.63
2023-05-21T14:02:43.059Z,100413.56
2023-05-21T14:05:12.104Z,100409.81
2023-05-21T14:07:40.020Z,100410.91
2023-05-21T14:10:08.360Z,100412.95
2023-05-21T14:12:37.104Z,100416.99
2023-05-21T14:15:05.382Z,100412.73
2023-05-21T14:17:33.079Z,100406.23
2023-05-21T14:20:00.722Z,100401.59
2023-05-21T14:22:28.386Z,100400.20
2023-05-21T14:24:56.156Z,100403.71
2023-05-21T14:27:24.023Z,100407.33
2023-05-21T14:29:51.640Z,100407.59
2023-05-21T14:32:19.392Z,100406.86
2023-05-21T14:34:47.171Z,100405.01
2023-05-21T14:37:14.860Z,100402.79
2023-05-21T14:39:42.520Z,100406.30
2023-05-21T14:42:10.289Z,100406.35
2023-05-21T14:44:37.949Z,100406.78
2023-05-21T14:47:05.573Z,100397.42
2023-05-21T14:49:33.350Z,100395.80
2023-05-21T14:52:01.037Z,100393.66
2023-05-21T14:54:28.634Z,100391.98
2023-05-21T14:56:56.267Z,100386.74
2023-05-21T14:59:23.849Z,100387.65
2023-05-21T15:01:51.592Z,100386.69
2023-05-21T15:04:19.201Z,100392.33
2023-05-21T15:06:46.857Z,100395.98
2023-05-21T15:09:14.550Z,100399.94
2023-05-21T15:11:44.454Z,100400.23
2023-05-21T15:14:12.557Z,100395.23
2023-05-21T15:16:40.278Z,100396.63
2023-05-21T15:19:07.954Z,100394.09
2023-05-21T15:21:35.577Z,100393.96
2023-05-21T15:24:03.620Z,100395.39
2023-05-21T15:26:31.419Z,100397.38
2023-05-21T15:28:59.016Z,100398.60
2023-05-21T15:31:26.624Z,100392.79
2023-05-21T15:33:54.482Z,100387.88
2023-05-21T15:36:22.053Z,100388.80
2023-05-21T15:38:49.659Z,100386.17
2023-05-21T15:41:17.321Z,100383.38
2023-05-21T15:43:45.973Z,100378.85
2023-05-21T15:46:13.662Z,100377.81
2023-05-21T15:48:41.333Z,100381.28
2023-05-21T15:51:09.047Z,100377.85
2023-05-21T15:53:36.705Z,100378.47
2023-05-21T15:56:04.851Z,100377.89
2023-05-21T15:58:32.522Z,100374.04
2023-05-21T16:01:00.313Z,100373.25
2023-05-21T16:03:28.070Z,100373.25
2023-05-21T16:05:55.759Z,100375.01
2023-05-21T16:08:23.323Z,100372.82
2023-05-21T16:10:50.933Z,100372.02
2023-05-21T16:13:18.554Z,100371.12
2023-05-21T16:15:46.222Z,100365.27
2023-05-21T16:18:13.857Z,100364.60
2023-05-21T16:20:41.510Z,100363.61
2023-05-21T16:23:09.235Z,100363.27
2023-05-21T16:25:37.261Z,100358.86
2023-05-21T16:28:05.873Z,100362.76
2023-05-21T16:30:33.505Z,100361.20
2023-05-21T16:33:01.199Z,100362.38
2023-05-21T16:35:30.981Z,100359.36
2023-05-21T16:37:59.085Z,100359.62
2023-05-21T16:40:26.807Z,100361.37
2023-05-21T16:42:54.463Z,100358.44
2023-05-21T16:45:23.163Z,100358.15
2023-05-21T16:47:51.548Z,100350.98
2023-05-21T16:50:19.711Z,100349.99
2023-05-21T16:52:47.344Z,100348.84
2023-05-21T16:55:15.039Z,100351.64
2023-05-21T16:57:42.687Z,100354.45
2023-05-21T17:00:11.034Z,100356.63
2023-05-21T17:02:38.759Z,100358.27
2023-05-21T17:05:08.641Z,100353.55
2023-05-21T17:07:42.904Z,100356.52
2023-05-21T17:10:15.463Z,100357.59
2023-05-21T17:12:45.278Z,100362.13
2023-05-21T17:15:23.375Z,100367.58
2023-05-21T17:17:51.455Z,100372.27
2023-05-21T17:20:19.118Z,100370.94
2023-05-21T17:22:46.757Z,100374.16
2023-05-21T17:25:14.519Z,100375.37
2023-05-21T17:27:42.104Z,100372.14
2023-05-21T17:30:10.131Z,100372.30
2023-05-21T17:32:37.859Z,100372.84
2023-05-21T17:35:06.242Z,100372.81
2023-05-21T17:37:33.855Z,100376.88
2023-05-21T17:40:01.553Z,100376.02
2023-05-21T17:42:29.169Z,100380.63
2023-05-21T17:44:56.846Z,100382.29
2023-05-21T17:47:24.493Z,100386.17
2023-05-21T17:49:52.218Z,100385.84
2023-05-21T17:52:19.903Z,100386.77
2023-05-21T17:54:47.528Z,100388.64
2023-05-21T17:57:15.997Z,100391.19
2023-05-21T17:59:45.199Z,100388.60
2023-05-21T18:02:13.595Z,100386.59
2023-05-21T18:04:41.246Z,100389.36
2023-05-21T18:07:08.881Z,100390.23
2023-05-21T18:09:36.678Z,100387.08
2023-05-21T18:12:06.891Z,100387.95
2023-05-21T18:14:34.602Z,100392.10
2023-05-21T18:17:02.409Z,100395.03
2023-05-21T18:19:31.208Z,100397.02
2023-05-21T18:21:59.146Z,100403.92
2023-05-21T18:24:27.283Z,100407.98
2023-05-21T18:26:55.083Z,100407.77
2023-05-21T18:29:22.792Z,100413.05
2023-05-21T18:31:51.141Z,100412.77
2023-05-21T18:34:19.131Z,100415.95
2023-05-21T18:36:48.034Z,100422.29
2023-05-21T18:39:15.726Z,100427.27
2023-05-21T18:41:43.410Z,100431.75
2023-05-21T18:44:11.126Z,100434.19
2023-05-21T18:46:39.349Z,100431.77
2023-05-21T18:49:07.189Z,100435.95
2023-05-21T18:51:34.930Z,100436.46
2023-05-21T18:54:02.739Z,100438.06
2023-05-21T18:56:30.782Z,100440.96
2023-05-21T18:58:58.492Z,100442.95
2023-05-21T19:01:26.220Z,100442.88
2023-05-21T19:03:53.904Z,100445.99
2023-05-21T19:06:25.206Z,100447.36
2023-05-21T19:08:53.180Z,100448.80
2023-05-21T19:11:23.501Z,100450.81
2023-05-21T19:13:51.795Z,100451.48
2023-05-21T19:16:19.794Z,100452.59
2023-05-21T19:18:47.491Z,100458.77
2023-05-21T19:21:15.403Z,100459.73
2023-05-21T19:23:52.464Z,100457.34
2023-05-21T19:26:22.553Z,100457.17
2023-05-21T19:28:53.428Z,100457.03
2023-05-21T19:31:22.532Z,100453.02
2023-05-21T19:33:51.227Z,100455.95
2023-05-21T19:36:20.895Z,100454.07
2023-05-21T19:38:50.491Z,100456.98
2023-05-21T19:41:19.452Z,100453.88
2023-05-21T19:43:47.565Z,100458.23
2023-05-21T19:46:18.305Z,100454.73
2023-05-21T19:48:47.644Z,100453.46
2023-05-21T19:51:16.133Z,100453.34
2023-05-21T19:53:44.369Z,100451.95
2023-05-21T19:56:12.028Z,100453.39
2023-05-21T19:58:40.754Z,100454.38
2023-05-21T20:01:08.541Z,100451.68
2023-05-21T20:03:37.068Z,100450.96
2023-05-21T20:06:04.881Z,100451.45
2023-05-21T20:08:32.512Z,100452.17
2023-05-21T20:11:00.349Z,100452.07
2023-05-21T20:13:27.987Z,100457.39
2023-05-21T20:15:55.631Z,100455.21
2023-05-21T20:18:24.944Z,100455.23
2023-05-21T20:20:52.892Z,100463.61
2023-05-21T20:23:20.606Z,100463.05
2023-05-21T20:25:48.426Z,100464.98
2023-05-21T20:28:16.612Z,100463.57
2023-05-21T20:31:02.408Z,100465.14
2023-05-21T20:33:34.752Z,100467.20
2023-05-21T20:36:03.376Z,100471.84
2023-05-21T20:38:32.948Z,100470.23
2023-05-21T20:41:03.578Z,100471.55
2023-05-21T20:43:31.201Z,100477.96
2023-05-21T20:46:02.072Z,100479.64
2023-05-21T20:48:29.798Z,100482.89
2023-05-21T20:50:57.921Z,100485.00
2023-05-21T20:53:25.910Z,100486.63
2023-05-21T20:55:54.653Z,100488.05
2023-05-21T20:58:25.829Z,100487.38
2023-05-21T21:00:54.936Z,100486.46
2023-05-21T21:03:22.671Z,100486.80
2023-05-21T21:05:50.555Z,100485.30
2023-05-21T21:08:18.151Z,100485.74
2023-05-21T21:10:46.812Z,100491.88
2023-05-21T21:13:14.740Z,100491.08
2023-05-21T21:15:43.711Z,100489.36
2023-05-21T21:18:14.319Z,100489.05
2023-05-21T21:20:42.602Z,100497.40
2023-05-21T21:23:10.246Z,100499.75
2023-05-21T21:25:37.850Z,100498.90
2023-05-21T21:28:05.554Z,100499.09
2023-05-21T21:30:33.211Z,100506.73
2023-05-21T21:33:00.986Z,100506.22
2023-05-21T21:35:28.648Z,100508.13
2023-05-21T21:37:56.406Z,100509.81
2023-05-21T21:40:24.167Z,100505.90
2023-05-21T21:42:51.757Z,100505.98
2023-05-21T21:45:19.420Z,100506.38
2023-05-21T21:47:47.156Z,100507.31
2023-05-21T21:50:15.022Z,100505.73
2023-05-21T21:52:45.176Z,100509.17
2023-05-21T21:55:12.796Z,100508.02
2023-05-21T21:57:40.655Z,100507.90
2023-05-21T22:00:16.902Z,100511.80
2023-05-21T22:02:47.828Z,100512.04
2023-05-21T22:05:15.550Z,100511.34
2023-05-21T22:07:46.824Z,100513.96
2023-05-21T22:10:16.044Z,100511.39
2023-05-21T22:12:46.057Z,100516.42
2023-05-21T22:15:27.318Z,100513.58
2023-05-21T22:17:55.519Z,100514.41
2023-05-21T22:20:23.326Z,100515.13
2023-05-21T22:22:51.710Z,100513.58
2023-05-21T22:25:20.102Z,100511.73
2023-05-21T22:27:47.737Z,100515.02
2023-05-21T22:30:15.423Z,100513.13
2023-05-21T22:32:43.218Z,100511.68
2023-05-21T22:35:12.415Z,100510.45
2023-05-21T22:37:40.106Z,100513.70
2023-05-21T22:40:09.093Z,100510.15
2023-05-21T22:42:36.937Z,100514.38
2023-05-21T22:45:05.124Z,100514.02
2023-05-21T22:47:32.814Z,100511.11
2023-05-21T22:50:04.220Z,100513.50
2023-05-21T22:52:32.406Z,100513.16
2023-05-21T22:55:00.777Z,100511.23
2023-05-21T22:57:28.646Z,100510.21
2023-05-21T22:59:56.303Z,100508.98
2023-05-21T23:02:24.035Z,100503.47
2023-05-21T23:04:51.827Z,100507.85
2023-05-21T23:07:19.753Z,100506.91
2023-05-21T23:09:47.454Z,100507.27
2023-05-21T23:12:15.176Z,100508.69
2023-05-21T23:14:42.866Z,100504.30
2023-05-21T23:17:10.991Z,100508.62
2023-05-21T23:19:39.204Z,100508.11
2023-05-21T23:22:06.874Z,100511.52
2023-05-21T23:24:38.675Z,100508.61
2023-05-21T23:27:06.406Z,100514.20
2023-05-21T23:29:33.993Z,100513.17
2023-05-21T23:32:04.475Z,100511.57
2023-05-21T23:34:32.292Z,100506.23
2023-05-21T23:37:00.698Z,100512.82
2023-05-21T23:39:28.655Z,100519.38
2023-05-21T23:41:56.521Z,100517.06
2023-05-21T23:44:24.207Z,100513.83
2023-05-21T23:46:51.850Z,100517.61
2023-05-21T23:49:19.434Z,100517.84
2023-05-21T23:51:50.350Z,100512.63
2023-05-21T23:54:18.032Z,100515.27
2023-05-21T23:56:46.327Z,100515.55
2023-05-21T23:59:16.176Z,100516.56
